createdAt,value
2019-02-04T00:00:42.222Z,-1.84
2019-02-04T00:02:17.537Z,-1.85
2019-02-04T00:03:53.423Z,-1.87
2019-02-04T00:05:30.664Z,-1.76
2019-02-04T00:07:08.251Z,-1.75
2019-02-04T00:08:44.225Z,-1.72
2019-02-04T00:10:19.444Z,-1.65
2019-02-04T00:11:55.122Z,-1.59
2019-02-04T00:13:31.060Z,-1.49
2019-02-04T00:15:12.471Z,-1.52
2019-02-04T00:16:47.027Z,-1.46
2019-02-04T00:18:23.262Z,-1.31
2019-02-04T00:20:01.028Z,-1.26
2019-02-04T00:21:35.984Z,-1.22
2019-02-04T00:23:13.772Z,-1.18
2019-02-04T00:24:49.860Z,-1.16
2019-02-04T00:26:28.353Z,-1.11
2019-02-04T00:28:03.944Z,-1.10
2019-02-04T00:29:40.787Z,-1.05
2019-02-04T00:31:21.321Z,-1.01
2019-02-04T00:32:56.561Z,-0.96
2019-02-04T00:34:32.470Z,-0.91
2019-02-04T00:36:08.218Z,-0.92
2019-02-04T00:37:43.460Z,-0.92
2019-02-04T00:39:18.827Z,-0.94
2019-02-04T00:40:54.112Z,-0.89
2019-02-04T00:42:31.652Z,-0.91
2019-02-04T00:44:06.542Z,-0.90
2019-02-04T00:45:44.929Z,-0.91
2019-02-04T00:47:25.556Z,-0.89
2019-02-04T00:49:03.660Z,-0.85
2019-02-04T00:50:43.603Z,-0.89
2019-02-04T00:52:26.406Z,-0.93
2019-02-04T00:54:04.702Z,-0.98
2019-02-04T00:55:40.707Z,-0.94
2019-02-04T00:57:17.734Z,-0.97
2019-02-04T00:58:53.230Z,-0.93
2019-02-04T01:00:29.214Z,-0.93
2019-02-04T01:02:05.202Z,-0.94
2019-02-04T01:03:40.977Z,-0.91
2019-02-04T01:05:16.924Z,-0.84
2019-02-04T01:06:52.792Z,-0.85
2019-02-04T01:08:27.969Z,-0.80
2019-02-04T01:10:03.550Z,-0.76
2019-02-04T01:11:39.543Z,-0.69
2019-02-04T01:13:14.797Z,-0.74
2019-02-04T01:14:50.066Z,-0.83
2019-02-04T01:16:26.664Z,-0.82
2019-02-04T01:18:02.431Z,-0.87
2019-02-04T01:19:39.306Z,-0.88
2019-02-04T01:21:14.490Z,-0.91
2019-02-04T01:22:51.032Z,-0.87
2019-02-04T01:24:26.381Z,-0.87
2019-02-04T01:26:01.841Z,-0.97
2019-02-04T01:27:39.104Z,-0.99
2019-02-04T01:29:14.228Z,-0.97
2019-02-04T01:30:49.608Z,-0.94
2019-02-04T01:32:24.857Z,-0.99
2019-02-04T01:34:00.931Z,-1.01
2019-02-04T01:35:36.281Z,-0.90
2019-02-04T01:37:11.736Z,-0.87
2019-02-04T01:38:46.988Z,-0.93
2019-02-04T01:40:24.298Z,-0.93
2019-02-04T01:41:59.502Z,-0.88
2019-02-04T01:43:34.806Z,-0.90
2019-02-04T01:45:13.397Z,-0.95
2019-02-04T01:46:51.456Z,-0.89
2019-02-04T01:48:30.258Z,-0.97
2019-02-04T01:50:13.749Z,-0.94
2019-02-04T01:51:49.230Z,-1.01
2019-02-04T01:53:24.586Z,-0.99
2019-02-04T01:55:02.153Z,-1.06
2019-02-04T01:56:42.499Z,-1.06
2019-02-04T01:58:17.845Z,-0.99
2019-02-04T01:59:53.211Z,-1.01
2019-02-04T02:01:28.803Z,-0.96
2019-02-04T02:03:08.092Z,-1.00
2019-02-04T02:04:45.455Z,-1.01
2019-02-04T02:06:20.644Z,-1.04
2019-02-04T02:08:01.147Z,-1.04
2019-02-04T02:09:37.182Z,-1.02
2019-02-04T02:11:13.344Z,-1.01
2019-02-04T02:12:51.509Z,-0.98
2019-02-04T02:14:26.789Z,-1.00
2019-02-04T02:16:02.472Z,-1.06
2019-02-04T02:17:38.120Z,-1.11
2019-02-04T02:19:13.731Z,-1.05
2019-02-04T02:20:51.003Z,-1.06
2019-02-04T02:22:30.673Z,-1.09
2019-02-04T02:24:06.250Z,-1.09
2019-02-04T02:25:42.098Z,-1.12
2019-02-04T02:27:17.305Z,-1.05
2019-02-04T02:28:52.633Z,-1.10
2019-02-04T02:30:30.006Z,-1.11
2019-02-04T02:32:07.397Z,-1.13
2019-02-04T02:33:42.632Z,-1.10
2019-02-04T02:35:17.794Z,-1.09
2019-02-04T02:36:53.386Z,-1.14
2019-02-04T02:38:28.510Z,-1.14
2019-02-04T02:40:03.840Z,-1.14
2019-02-04T02:41:39.201Z,-1.12
2019-02-04T02:43:14.882Z,-1.10
2019-02-04T02:44:50.310Z,-1.09
2019-02-04T02:46:25.459Z,-1.11
2019-02-04T02:48:00.760Z,-1.08
2019-02-04T02:49:36.453Z,-1.09
2019-02-04T02:51:12.263Z,-1.05
2019-02-04T02:52:47.753Z,-1.07
2019-02-04T02:54:22.965Z,-1.06
2019-02-04T02:55:58.117Z,-1.09
2019-02-04T02:57:33.393Z,-1.09
2019-02-04T02:59:08.707Z,-1.04
2019-02-04T03:00:44.131Z,-0.99
2019-02-04T03:02:19.855Z,-1.04
2019-02-04T03:03:55.498Z,-1.07
2019-02-04T03:05:30.688Z,-1.04
2019-02-04T03:07:05.860Z,-1.08
2019-02-04T03:08:41.117Z,-1.13
2019-02-04T03:10:18.710Z,-1.11
2019-02-04T03:11:56.950Z,-1.11
2019-02-04T03:13:32.242Z,-1.11
2019-02-04T03:15:08.086Z,-1.13
2019-02-04T03:16:43.291Z,-1.12
2019-02-04T03:18:18.673Z,-1.04
2019-02-04T03:19:54.143Z,-1.02
2019-02-04T03:21:29.264Z,-0.99
2019-02-04T03:23:04.720Z,-0.94
2019-02-04T03:24:40.118Z,-1.07
2019-02-04T03:26:15.642Z,-1.03
2019-02-04T03:27:50.957Z,-0.99
2019-02-04T03:29:26.106Z,-0.99
2019-02-04T03:31:02.030Z,-1.00
2019-02-04T03:32:37.303Z,-0.98
2019-02-04T03:34:12.543Z,-1.03
2019-02-04T03:35:47.647Z,-0.99
2019-02-04T03:37:22.817Z,-1.01
2019-02-04T03:38:58.429Z,-1.09
2019-02-04T03:40:34.128Z,-1.05
2019-02-04T03:42:09.385Z,-1.06
2019-02-04T03:43:44.649Z,-1.06
2019-02-04T03:45:19.785Z,-1.07
2019-02-04T03:46:55.062Z,-1.11
2019-02-04T03:48:30.981Z,-1.10
2019-02-04T03:50:06.869Z,-1.11
2019-02-04T03:51:42.303Z,-1.09
2019-02-04T03:53:20.542Z,-1.05
2019-02-04T03:54:55.664Z,-1.05
2019-02-04T03:56:31.856Z,-1.05
2019-02-04T03:58:07.039Z,-1.06
2019-02-04T03:59:43.799Z,-1.05
2019-02-04T04:01:19.236Z,-1.12
2019-02-04T04:02:54.481Z,-1.16
2019-02-04T04:04:32.711Z,-1.12
2019-02-04T04:06:09.170Z,-1.09
2019-02-04T04:07:44.855Z,-1.12
2019-02-04T04:09:20.235Z,-1.13
2019-02-04T04:10:55.510Z,-1.14
2019-02-04T04:12:31.106Z,-1.18
2019-02-04T04:14:06.518Z,-1.12
2019-02-04T04:15:45.230Z,-1.23
2019-02-04T04:17:20.838Z,-1.29
2019-02-04T04:18:56.329Z,-1.30
2019-02-04T04:20:32.192Z,-1.35
2019-02-04T04:22:07.609Z,-1.39
2019-02-04T04:23:43.318Z,-1.49
2019-02-04T04:25:18.433Z,-1.58
2019-02-04T04:26:54.004Z,-1.68
2019-02-04T04:28:29.302Z,-1.78
2019-02-04T04:30:05.971Z,-1.79
2019-02-04T04:31:41.359Z,-1.89
2019-02-04T04:33:16.498Z,-1.90
2019-02-04T04:34:51.727Z,-1.91
2019-02-04T04:36:27.705Z,-1.95
2019-02-04T04:38:02.939Z,-1.99
2019-02-04T04:39:38.896Z,-2.00
2019-02-04T04:41:14.413Z,-1.99
2019-02-04T04:42:51.393Z,-2.02
2019-02-04T04:44:29.109Z,-2.03
2019-02-04T04:46:04.343Z,-2.02
2019-02-04T04:47:39.904Z,-2.02
2019-02-04T04:49:15.633Z,-2.04
2019-02-04T04:50:50.834Z,-2.08
2019-02-04T04:52:25.957Z,-2.05
2019-02-04T04:54:01.221Z,-2.12
2019-02-04T04:55:36.675Z,-2.20
2019-02-04T04:57:12.068Z,-2.26
2019-02-04T04:58:47.243Z,-2.32
2019-02-04T05:00:27.371Z,-2.39
2019-02-04T05:02:02.578Z,-2.42
2019-02-04T05:03:38.065Z,-2.44
2019-02-04T05:05:13.771Z,-2.45
2019-02-04T05:06:48.890Z,-2.53
2019-02-04T05:08:24.379Z,-2.58
2019-02-04T05:09:59.583Z,-2.53
2019-02-04T05:11:34.743Z,-2.53
2019-02-04T05:13:09.964Z,-2.46
2019-02-04T05:14:47.235Z,-2.54
2019-02-04T05:16:22.472Z,-2.53
2019-02-04T05:17:57.898Z,-2.56
2019-02-04T05:19:33.171Z,-2.59
2019-02-04T05:21:08.315Z,-2.60
2019-02-04T05:22:43.512Z,-2.60
2019-02-04T05:24:18.714Z,-2.59
2019-02-04T05:25:54.517Z,-2.58
2019-02-04T05:27:29.650Z,-2.69
2019-02-04T05:29:06.138Z,-2.66
2019-02-04T05:30:41.451Z,-2.72
2019-02-04T05:32:18.158Z,-2.80
2019-02-04T05:33:54.122Z,-2.83
2019-02-04T05:35:33.355Z,-2.92
2019-02-04T05:37:08.448Z,-2.94
2019-02-04T05:38:43.526Z,-2.98
2019-02-04T05:40:23.303Z,-3.02
2019-02-04T05:42:04.240Z,-3.06
2019-02-04T05:43:39.497Z,-3.15
2019-02-04T05:45:17.574Z,-3.22
2019-02-04T05:46:52.812Z,-3.20
2019-02-04T05:48:27.916Z,-3.15
2019-02-04T05:50:03.055Z,-3.08
2019-02-04T05:51:38.264Z,-2.93
2019-02-04T05:53:16.168Z,-3.02
2019-02-04T05:54:51.295Z,-3.01
2019-02-04T05:56:28.018Z,-3.02
2019-02-04T05:58:05.664Z,-3.06
2019-02-04T05:59:40.940Z,-3.06
2019-02-04T06:01:18.022Z,-3.13
2019-02-04T06:02:58.492Z,-3.14
2019-02-04T06:04:33.590Z,-3.20
2019-02-04T06:06:09.577Z,-3.28
2019-02-04T06:07:44.764Z,-3.29
2019-02-04T06:09:21.300Z,-3.28
2019-02-04T06:10:56.668Z,-3.28
2019-02-04T06:12:34.853Z,-3.37
2019-02-04T06:14:11.822Z,-3.37
2019-02-04T06:15:47.690Z,-3.32
2019-02-04T06:17:23.320Z,-3.30
2019-02-04T06:19:01.301Z,-3.26
2019-02-04T06:20:39.385Z,-3.32
2019-02-04T06:22:14.999Z,-3.33
2019-02-04T06:23:54.164Z,-3.32
2019-02-04T06:25:30.540Z,-3.35
2019-02-04T06:27:10.239Z,-3.41
2019-02-04T06:28:48.842Z,-3.41
2019-02-04T06:30:24.687Z,-3.46
2019-02-04T06:32:00.230Z,-3.46
2019-02-04T06:33:35.929Z,-3.49
2019-02-04T06:35:11.459Z,-3.50
2019-02-04T06:36:50.539Z,-3.51
2019-02-04T06:38:24.268Z,-3.47
2019-02-04T06:39:59.718Z,-3.49
2019-02-04T06:41:35.233Z,-3.49
2019-02-04T06:43:10.553Z,-3.45
2019-02-04T06:44:46.080Z,-3.42
2019-02-04T06:46:27.787Z,-3.42
2019-02-04T06:48:03.624Z,-3.42
2019-02-04T06:49:39.319Z,-3.35
2019-02-04T06:51:16.045Z,-3.35
2019-02-04T06:52:53.903Z,-3.37
2019-02-04T06:54:32.344Z,-3.43
2019-02-04T06:56:08.034Z,-3.43
2019-02-04T06:57:43.676Z,-3.39
2019-02-04T06:59:18.871Z,-3.45
2019-02-04T07:00:54.576Z,-3.47
2019-02-04T07:02:29.657Z,-3.49
2019-02-04T07:04:06.119Z,-3.48
2019-02-04T07:05:44.231Z,-3.51
2019-02-04T07:07:28.574Z,-3.51
2019-02-04T07:09:05.442Z,-3.55
2019-02-04T07:10:42.255Z,-3.58
2019-02-04T07:12:17.978Z,-3.61
2019-02-04T07:13:53.319Z,-3.63
2019-02-04T07:15:28.917Z,-3.66
2019-02-04T07:17:07.308Z,-3.64
2019-02-04T07:18:42.743Z,-3.63
2019-02-04T07:20:24.030Z,-3.60
2019-02-04T07:21:59.344Z,-3.65
2019-02-04T07:23:35.078Z,-3.69
2019-02-04T07:25:11.682Z,-3.66
2019-02-04T07:26:49.830Z,-3.63
2019-02-04T07:28:29.080Z,-3.63
2019-02-04T07:30:06.013Z,-3.59
2019-02-04T07:31:43.638Z,-3.62
2019-02-04T07:33:20.439Z,-3.54
2019-02-04T07:34:56.090Z,-3.56
2019-02-04T07:36:33.323Z,-3.58
2019-02-04T07:38:09.202Z,-3.48
2019-02-04T07:39:46.612Z,-3.42
2019-02-04T07:41:29.260Z,-3.35
2019-02-04T07:43:04.462Z,-3.28
2019-02-04T07:44:40.134Z,-3.22
2019-02-04T07:46:21.391Z,-3.03
2019-02-04T07:47:58.826Z,-2.89
2019-02-04T07:49:40.930Z,-2.89
2019-02-04T07:51:17.118Z,-2.82
2019-02-04T07:52:52.543Z,-2.70
2019-02-04T07:54:27.802Z,-2.68
2019-02-04T07:56:03.920Z,-2.73
2019-02-04T07:57:41.395Z,-2.66
2019-02-04T07:59:18.179Z,-2.63
2019-02-04T08:00:54.679Z,-2.48
2019-02-04T08:02:32.149Z,-2.42
2019-02-04T08:04:08.007Z,-2.37
2019-02-04T08:05:48.308Z,-2.41
2019-02-04T08:07:26.221Z,-2.25
2019-02-04T08:09:01.786Z,-2.24
2019-02-04T08:10:43.718Z,-2.13
2019-02-04T08:12:19.464Z,-2.12
2019-02-04T08:13:58.508Z,-2.20
2019-02-04T08:15:38.445Z,-2.19
2019-02-04T08:17:18.131Z,-2.11
2019-02-04T08:18:53.598Z,-2.12
2019-02-04T08:20:29.182Z,-2.17
2019-02-04T08:22:06.336Z,-2.08
2019-02-04T08:23:41.850Z,-2.19
2019-02-04T08:25:25.953Z,-2.18
2019-02-04T08:27:02.159Z,-2.11
2019-02-04T08:28:38.084Z,-2.24
2019-02-04T08:30:23.829Z,-2.13
2019-02-04T08:32:02.691Z,-2.05
2019-02-04T08:33:38.366Z,-2.08
2019-02-04T08:35:14.315Z,-1.99
2019-02-04T08:36:52.258Z,-1.99
2019-02-04T08:38:27.859Z,-2.12
2019-02-04T08:40:03.443Z,-2.08
2019-02-04T08:41:41.488Z,-1.97
2019-02-04T08:43:17.482Z,-1.94
2019-02-04T08:44:53.196Z,-2.04
2019-02-04T08:46:28.516Z,-2.04
2019-02-04T08:48:07.208Z,-1.93
2019-02-04T08:49:42.730Z,-1.89
2019-02-04T08:51:18.163Z,-1.85
2019-02-04T08:52:56.384Z,-1.78
2019-02-04T08:54:36.074Z,-1.64
2019-02-04T08:56:11.512Z,-1.56
2019-02-04T08:57:46.775Z,-1.58
2019-02-04T08:59:22.476Z,-1.47
2019-02-04T09:01:01.581Z,-1.42
2019-02-04T09:02:39.502Z,-1.31
2019-02-04T09:04:17.508Z,-1.14
2019-02-04T09:05:53.122Z,-1.12
2019-02-04T09:07:34.316Z,-1.05
2019-02-04T09:09:10.791Z,-0.89
2019-02-04T09:10:56.181Z,-0.70
2019-02-04T09:12:33.784Z,-0.63
2019-02-04T09:14:13.271Z,-0.50
2019-02-04T09:15:49.042Z,-0.54
2019-02-04T09:17:35.325Z,-0.45
2019-02-04T09:19:12.296Z,-0.69
2019-02-04T09:20:50.501Z,-0.39
2019-02-04T09:22:27.136Z,-0.30
2019-02-04T09:24:06.048Z,-0.26
2019-02-04T09:25:44.380Z,-0.14
2019-02-04T09:27:21.794Z,-0.02
2019-02-04T09:28:57.944Z,0.10
2019-02-04T09:30:33.319Z,0.20
2019-02-04T09:32:13.031Z,0.29
2019-02-04T09:33:48.929Z,0.44
2019-02-04T09:35:26.177Z,0.54
2019-02-04T09:37:06.247Z,0.45
2019-02-04T09:38:42.218Z,0.41
2019-02-04T09:40:25.751Z,0.26
2019-02-04T09:42:02.991Z,0.36
2019-02-04T09:43:38.795Z,0.61
2019-02-04T09:45:24.363Z,0.57
2019-02-04T09:46:58.274Z,0.75
2019-02-04T09:48:36.026Z,0.82
2019-02-04T09:50:21.420Z,0.90
2019-02-04T09:51:51.258Z,0.70
2019-02-04T09:53:26.574Z,0.99
2019-02-04T09:55:01.854Z,1.08
2019-02-04T09:56:39.235Z,0.93
2019-02-04T09:58:16.712Z,0.93
2019-02-04T09:59:52.140Z,0.93
2019-02-04T10:01:27.689Z,0.83
2019-02-04T10:03:03.560Z,1.03
2019-02-04T10:04:46.942Z,1.08
2019-02-04T10:06:26.067Z,1.11
2019-02-04T10:08:03.555Z,1.27
2019-02-04T10:09:40.541Z,1.43
2019-02-04T10:11:16.109Z,1.61
2019-02-04T10:12:53.183Z,1.39
2019-02-04T10:14:28.454Z,1.50
2019-02-04T10:16:03.874Z,1.68
2019-02-04T10:17:41.155Z,1.43
2019-02-04T10:19:17.330Z,1.20
2019-02-04T10:20:53.145Z,1.62
2019-02-04T10:22:28.838Z,1.32
2019-02-04T10:24:04.667Z,1.25
2019-02-04T10:25:44.142Z,1.18
2019-02-04T10:27:23.023Z,1.35
2019-02-04T10:29:04.619Z,1.38
2019-02-04T10:30:40.466Z,1.59
2019-02-04T10:32:16.015Z,1.50
2019-02-04T10:33:54.348Z,1.60
2019-02-04T10:35:32.933Z,1.49
2019-02-04T10:37:11.868Z,1.70
2019-02-04T10:38:48.059Z,1.71
2019-02-04T10:40:30.319Z,1.85
2019-02-04T10:42:05.621Z,1.72
2019-02-04T10:43:44.361Z,1.74
2019-02-04T10:45:20.254Z,1.84
2019-02-04T10:46:56.265Z,1.69
2019-02-04T10:48:35.204Z,1.82
2019-02-04T10:50:23.793Z,1.84
2019-02-04T10:52:02.215Z,1.87
2019-02-04T10:53:37.678Z,1.95
2019-02-04T10:55:14.813Z,1.71
2019-02-04T10:56:50.509Z,2.00
2019-02-04T10:58:27.134Z,2.13
2019-02-04T11:00:04.364Z,1.94
2019-02-04T11:01:46.274Z,1.77
2019-02-04T11:03:21.691Z,1.87
2019-02-04T11:04:57.342Z,1.85
2019-02-04T11:06:32.732Z,1.87
2019-02-04T11:08:09.206Z,1.88
2019-02-04T11:09:44.459Z,2.04
2019-02-04T11:11:23.822Z,1.93
2019-02-04T11:12:59.120Z,1.70
2019-02-04T11:14:38.448Z,1.75
2019-02-04T11:16:14.308Z,1.74
2019-02-04T11:17:51.833Z,1.95
2019-02-04T11:19:32.106Z,1.64
2019-02-04T11:21:08.035Z,1.86
2019-02-04T11:22:49.502Z,1.87
2019-02-04T11:24:27.294Z,1.74
2019-02-04T11:26:02.761Z,1.92
2019-02-04T11:27:43.323Z,1.93
2019-02-04T11:29:21.285Z,1.98
2019-02-04T11:31:01.307Z,1.88
2019-02-04T11:32:43.374Z,1.79
2019-02-04T11:34:19.379Z,2.12
2019-02-04T11:35:54.749Z,1.94
2019-02-04T11:37:34.142Z,2.14
2019-02-04T11:39:13.137Z,2.07
2019-02-04T11:40:50.720Z,2.35
2019-02-04T11:42:25.787Z,2.47
2019-02-04T11:44:04.324Z,2.57
2019-02-04T11:45:41.356Z,2.64
2019-02-04T11:47:17.824Z,2.52
2019-02-04T11:48:54.783Z,2.61
2019-02-04T11:50:41.752Z,2.53
2019-02-04T11:52:21.606Z,2.78
2019-02-04T11:53:56.801Z,3.04
2019-02-04T11:55:42.194Z,2.87
2019-02-04T11:57:17.996Z,3.06
2019-02-04T11:58:53.404Z,3.08
2019-02-04T12:00:30.356Z,3.33
2019-02-04T12:02:06.222Z,3.08
2019-02-04T12:03:44.768Z,3.04
2019-02-04T12:05:20.859Z,3.02
2019-02-04T12:06:58.989Z,3.24
2019-02-04T12:08:35.226Z,3.07
2019-02-04T12:10:18.563Z,3.28
2019-02-04T12:11:57.176Z,3.29
2019-02-04T12:13:32.378Z,3.16
2019-02-04T12:15:18.926Z,3.08
2019-02-04T12:16:54.183Z,3.29
2019-02-04T12:18:35.621Z,3.28
2019-02-04T12:20:17.195Z,3.18
2019-02-04T12:21:52.773Z,3.42
2019-02-04T12:23:28.228Z,3.52
2019-02-04T12:25:09.747Z,3.50
2019-02-04T12:26:46.041Z,3.52
2019-02-04T12:28:28.318Z,3.20
2019-02-04T12:29:58.774Z,3.22
2019-02-04T12:31:42.096Z,3.26
2019-02-04T12:33:23.444Z,3.18
2019-02-04T12:35:07.969Z,3.11
2019-02-04T12:36:44.949Z,3.23
2019-02-04T12:38:21.673Z,3.43
2019-02-04T12:40:00.245Z,3.24
2019-02-04T12:41:37.630Z,3.12
2019-02-04T12:43:12.932Z,3.31
2019-02-04T12:45:04.268Z,3.28
2019-02-04T12:46:44.074Z,3.39
2019-02-04T12:48:24.656Z,3.06
2019-02-04T12:50:00.351Z,3.31
2019-02-04T12:51:41.632Z,3.24
2019-02-04T12:53:16.926Z,3.22
2019-02-04T12:54:52.392Z,3.45
2019-02-04T12:56:29.524Z,3.37
2019-02-04T12:58:05.248Z,3.20
2019-02-04T12:59:45.208Z,3.50
2019-02-04T13:01:26.678Z,3.60
2019-02-04T13:03:02.281Z,3.32
2019-02-04T13:04:44.739Z,3.38
2019-02-04T13:06:19.986Z,3.43
2019-02-04T13:07:55.374Z,3.51
2019-02-04T13:09:39.209Z,3.33
2019-02-04T13:11:27.671Z,3.30
2019-02-04T13:13:12.108Z,3.36
2019-02-04T13:14:52.517Z,3.56
2019-02-04T13:16:35.386Z,3.31
2019-02-04T13:18:20.202Z,3.53
2019-02-04T13:20:01.708Z,3.26
2019-02-04T13:21:45.147Z,3.27
2019-02-04T13:23:15.136Z,2.91
2019-02-04T13:24:53.683Z,2.79
2019-02-04T13:26:32.325Z,2.79
2019-02-04T13:28:14.911Z,2.76
2019-02-04T13:29:56.506Z,2.67
2019-02-04T13:31:33.583Z,2.77
2019-02-04T13:33:09.111Z,2.69
2019-02-04T13:34:45.391Z,2.54
2019-02-04T13:36:26.135Z,2.48
2019-02-04T13:38:07.576Z,2.46
2019-02-04T13:39:48.228Z,2.41
2019-02-04T13:41:26.020Z,2.53
2019-02-04T13:43:01.159Z,2.34
2019-02-04T13:44:36.384Z,2.29
2019-02-04T13:46:12.595Z,2.27
2019-02-04T13:47:48.189Z,2.35
2019-02-04T13:49:31.030Z,2.29
2019-02-04T13:51:09.795Z,2.38
2019-02-04T13:52:46.147Z,2.47
2019-02-04T13:54:33.293Z,2.14
2019-02-04T13:56:15.439Z,2.14
2019-02-04T13:58:02.460Z,2.30
2019-02-04T13:59:41.277Z,2.29
2019-02-04T14:01:19.507Z,2.20
2019-02-04T14:03:00.674Z,2.16
2019-02-04T14:04:44.322Z,2.28
2019-02-04T14:06:27.438Z,2.19
2019-02-04T14:08:02.989Z,2.26
2019-02-04T14:09:38.385Z,2.33
2019-02-04T14:11:15.980Z,2.44
2019-02-04T14:12:54.593Z,2.63
2019-02-04T14:14:31.280Z,2.42
2019-02-04T14:16:06.697Z,2.53
2019-02-04T14:17:58.188Z,2.47
2019-02-04T14:19:31.665Z,2.36
2019-02-04T14:21:08.753Z,2.35
2019-02-04T14:22:49.362Z,2.29
2019-02-04T14:24:29.474Z,2.18
2019-02-04T14:26:15.169Z,2.21
2019-02-04T14:27:50.729Z,2.07
2019-02-04T14:29:34.513Z,2.10
2019-02-04T14:31:11.354Z,2.15
2019-02-04T14:32:48.635Z,2.21
2019-02-04T14:34:26.920Z,2.25
2019-02-04T14:36:02.618Z,2.04
2019-02-04T14:37:38.500Z,2.12
2019-02-04T14:39:16.540Z,2.02
2019-02-04T14:40:54.327Z,2.01
2019-02-04T14:42:29.434Z,2.06
2019-02-04T14:44:47.665Z,2.00
2019-02-04T14:46:53.479Z,1.94
2019-02-04T14:49:07.279Z,1.89
2019-02-04T14:51:50.407Z,2.01
2019-02-04T14:55:12.171Z,1.82
2019-02-04T14:56:43.427Z,1.66
2019-02-04T14:58:42.263Z,1.64
2019-02-04T15:00:56.912Z,1.55
2019-02-04T15:03:08.265Z,1.53
2019-02-04T15:05:11.329Z,1.44
2019-02-04T15:07:29.664Z,1.44
2019-02-04T15:09:57.593Z,1.39
2019-02-04T15:12:21.841Z,1.37
2019-02-04T15:14:47.079Z,1.23
2019-02-04T15:16:34.269Z,1.25
2019-02-04T15:18:50.532Z,1.23
2019-02-04T15:24:38.139Z,1.11
2019-02-04T15:26:50.313Z,1.03
2019-02-04T15:29:15.392Z,0.96
2019-02-04T15:31:46.867Z,0.92
2019-02-04T15:33:37.626Z,0.86
2019-02-04T15:35:49.256Z,0.85
2019-02-04T15:37:45.758Z,0.76
2019-02-04T15:39:54.480Z,0.78
2019-02-04T15:42:33.692Z,0.76
2019-02-04T15:45:16.982Z,0.73
2019-02-04T15:47:20.554Z,0.72
2019-02-04T15:49:50.174Z,0.65
2019-02-04T15:51:46.601Z,0.58
2019-02-04T15:53:23.770Z,0.62
2019-02-04T15:55:02.899Z,0.58
2019-02-04T15:56:40.201Z,0.57
2019-02-04T15:58:23.035Z,0.57
2019-02-04T16:00:07.194Z,0.53
2019-02-04T16:01:48.385Z,0.55
2019-02-04T16:03:32.252Z,0.56
2019-02-04T16:05:12.455Z,0.51
2019-02-04T16:06:59.156Z,0.50
2019-02-04T16:08:56.345Z,0.48
2019-02-04T16:10:41.637Z,0.44
2019-02-04T16:12:35.783Z,0.46
2019-02-04T16:14:46.275Z,0.46
2019-02-04T16:16:06.138Z,0.44
2019-02-04T16:17:53.238Z,0.46
2019-02-04T16:19:53.472Z,0.37
2019-02-04T16:21:34.277Z,0.39
2019-02-04T16:23:13.245Z,0.35
2019-02-04T16:24:56.132Z,0.32
2019-02-04T16:26:57.605Z,0.31
2019-02-04T16:28:38.585Z,0.32
2019-02-04T16:30:31.848Z,0.34
2019-02-04T16:32:27.278Z,0.32
2019-02-04T16:34:10.379Z,0.30
2019-02-04T16:35:50.105Z,0.26
2019-02-04T16:37:41.168Z,0.26
2019-02-04T16:39:19.636Z,0.31
2019-02-04T16:41:18.863Z,0.21
2019-02-04T16:42:59.753Z,0.24
2019-02-04T16:44:38.482Z,0.22
2019-02-04T16:46:14.540Z,0.18
2019-02-04T16:47:50.767Z,0.24
2019-02-04T16:49:28.329Z,0.18
2019-02-04T16:51:15.362Z,0.19
2019-02-04T16:53:09.721Z,0.14
2019-02-04T16:54:35.856Z,0.02
2019-02-04T16:56:12.229Z,0.02
2019-02-04T16:57:49.078Z,-0.02
2019-02-04T16:59:28.853Z,-0.07
2019-02-04T17:01:04.375Z,-0.02
2019-02-04T17:02:41.412Z,-0.06
2019-02-04T17:04:20.754Z,-0.08
2019-02-04T17:06:00.420Z,-0.10
2019-02-04T17:07:46.804Z,-0.13
2019-02-04T17:09:29.508Z,-0.17
2019-02-04T17:11:08.884Z,-0.20
2019-02-04T17:12:46.593Z,-0.18
2019-02-04T17:14:28.799Z,-0.17
2019-02-04T17:16:13.762Z,-0.16
2019-02-04T17:17:53.049Z,-0.18
2019-02-04T17:19:34.368Z,-0.16
2019-02-04T17:21:23.304Z,-0.11
2019-02-04T17:22:58.258Z,-0.11
2019-02-04T17:24:33.601Z,-0.11
2019-02-04T17:26:13.532Z,-0.10
2019-02-04T17:27:50.059Z,-0.09
2019-02-04T17:29:30.294Z,-0.12
2019-02-04T17:31:08.911Z,-0.06
2019-02-04T17:32:48.165Z,-0.04
2019-02-04T17:34:39.933Z,-0.10
2019-02-04T17:36:30.206Z,-0.12
2019-02-04T17:38:15.126Z,-0.14
2019-02-04T17:39:54.057Z,-0.13
2019-02-04T17:41:32.351Z,-0.17
2019-02-04T17:43:08.331Z,-0.17
2019-02-04T17:44:46.679Z,-0.17
2019-02-04T17:46:24.235Z,-0.17
2019-02-04T17:48:02.361Z,-0.18
2019-02-04T17:49:39.808Z,-0.19
2019-02-04T17:51:19.236Z,-0.18
2019-02-04T17:53:02.833Z,-0.16
2019-02-04T17:54:42.178Z,-0.20
2019-02-04T17:56:28.960Z,-0.14
2019-02-04T17:58:10.249Z,-0.11
2019-02-04T17:59:49.587Z,-0.09
2019-02-04T18:01:31.483Z,-0.03
2019-02-04T18:03:12.915Z,-0.01
2019-02-04T18:05:09.950Z,-0.01
2019-02-04T18:06:53.620Z,0.03
2019-02-04T18:08:42.229Z,0.01
2019-02-04T18:10:45.502Z,0.08
2019-02-04T18:12:28.230Z,0.07
2019-02-04T18:14:18.199Z,0.12
2019-02-04T18:15:59.379Z,0.06
2019-02-04T18:17:37.254Z,0.09
2019-02-04T18:19:18.558Z,0.03
2019-02-04T18:20:54.734Z,0.05
2019-02-04T18:22:51.898Z,0.09
2019-02-04T18:24:23.926Z,0.05
2019-02-04T18:26:04.636Z,0.09
2019-02-04T18:27:44.421Z,0.08
2019-02-04T18:29:18.705Z,0.06
2019-02-04T18:31:04.370Z,0.10
2019-02-04T18:32:44.429Z,0.08
2019-02-04T18:34:31.264Z,0.06
2019-02-04T18:36:12.379Z,0.08
2019-02-04T18:37:48.027Z,0.16
2019-02-04T18:39:26.691Z,0.19
2019-02-04T18:41:05.449Z,0.12
2019-02-04T18:42:42.239Z,0.16
2019-02-04T18:44:19.312Z,0.11
2019-02-04T18:46:06.596Z,0.10
2019-02-04T18:47:46.622Z,0.09
2019-02-04T18:49:29.894Z,0.11
2019-02-04T18:51:10.605Z,0.10
2019-02-04T18:52:47.111Z,0.08
2019-02-04T18:54:25.680Z,0.13
2019-02-04T18:56:08.581Z,0.07
2019-02-04T18:57:46.098Z,0.09
2019-02-04T18:59:29.374Z,0.14
2019-02-04T19:01:04.876Z,0.10
2019-02-04T19:02:45.449Z,0.14
2019-02-04T19:04:31.220Z,0.11
2019-02-04T19:06:14.288Z,0.04
2019-02-04T19:07:52.494Z,0.09
2019-02-04T19:09:31.240Z,0.05
2019-02-04T19:11:05.870Z,0.07
2019-02-04T19:12:42.762Z,0.07
2019-02-04T19:14:21.276Z,0.13
2019-02-04T19:16:12.249Z,0.11
2019-02-04T19:18:04.220Z,0.11
2019-02-04T19:19:59.341Z,0.17
2019-02-04T19:21:44.435Z,0.10
2019-02-04T19:23:20.181Z,0.08
2019-02-04T19:24:58.517Z,0.11
2019-02-04T19:26:33.851Z,0.10
2019-02-04T19:28:13.426Z,0.15
2019-02-04T19:29:50.969Z,0.10
2019-02-04T19:31:59.499Z,0.12
2019-02-04T19:33:40.907Z,0.08
2019-02-04T19:35:27.687Z,0.07
2019-02-04T19:37:04.440Z,0.03
2019-02-04T19:38:47.256Z,0.01
2019-02-04T19:40:23.878Z,0.06
2019-02-04T19:42:23.373Z,0.02
2019-02-04T19:44:03.782Z,0.03
2019-02-04T19:45:42.251Z,0.02
2019-02-04T19:47:30.184Z,0.03
2019-02-04T19:49:12.139Z,0.05
2019-02-04T19:50:50.493Z,0.04
2019-02-04T19:52:33.652Z,0.04
2019-02-04T19:54:21.603Z,0.02
2019-02-04T19:56:00.568Z,0.03
2019-02-04T19:57:39.227Z,0.09
2019-02-04T19:59:17.631Z,0.09
2019-02-04T20:00:55.138Z,0.04
2019-02-04T20:02:32.896Z,0.06
2019-02-04T20:04:08.337Z,0.03
2019-02-04T20:05:51.079Z,0.09
2019-02-04T20:07:26.518Z,0.08
2019-02-04T20:09:05.554Z,0.05
2019-02-04T20:10:47.068Z,0.08
2019-02-04T20:12:22.645Z,0.17
2019-02-04T20:14:01.109Z,0.11
2019-02-04T20:15:39.845Z,0.16
2019-02-04T20:17:15.129Z,0.21
2019-02-04T20:18:53.671Z,0.16
2019-02-04T20:20:42.407Z,0.16
2019-02-04T20:22:15.602Z,0.20
2019-02-04T20:23:55.366Z,0.17
2019-02-04T20:25:31.783Z,0.16
2019-02-04T20:27:08.048Z,0.17
2019-02-04T20:28:44.328Z,0.18
2019-02-04T20:30:45.360Z,0.17
2019-02-04T20:32:12.426Z,0.19
2019-02-04T20:33:51.256Z,0.13
2019-02-04T20:35:35.723Z,0.17
2019-02-04T20:37:13.392Z,0.15
2019-02-04T20:38:49.241Z,0.17
2019-02-04T20:40:28.532Z,0.17
2019-02-04T20:42:04.226Z,0.21
2019-02-04T20:43:39.492Z,0.23
2019-02-04T20:45:20.415Z,0.16
2019-02-04T20:46:55.809Z,0.18
2019-02-04T20:48:33.012Z,0.16
2019-02-04T20:50:23.296Z,0.22
2019-02-04T20:52:06.794Z,0.18
2019-02-04T20:53:44.668Z,0.20
2019-02-04T20:55:21.536Z,0.22
2019-02-04T20:56:58.514Z,0.27
2019-02-04T20:58:39.137Z,0.25
2019-02-04T21:00:18.690Z,0.23
2019-02-04T21:01:54.652Z,0.21
2019-02-04T21:03:34.365Z,0.18
2019-02-04T21:05:12.209Z,0.20
2019-02-04T21:06:56.223Z,0.24
2019-02-04T21:08:32.925Z,0.22
2019-02-04T21:10:18.592Z,0.20
2019-02-04T21:11:54.291Z,0.20
2019-02-04T21:13:34.454Z,0.22
2019-02-04T21:15:16.032Z,0.21
2019-02-04T21:16:54.538Z,0.21
2019-02-04T21:18:33.147Z,0.23
2019-02-04T21:20:17.600Z,0.20
2019-02-04T21:21:58.694Z,0.20
2019-02-04T21:23:40.477Z,0.20
2019-02-04T21:25:20.992Z,0.22
2019-02-04T21:26:59.344Z,0.23
2019-02-04T21:28:37.995Z,0.25
2019-02-04T21:30:21.010Z,0.25
2019-02-04T21:32:06.199Z,0.27
2019-02-04T21:33:46.227Z,0.29
2019-02-04T21:35:29.434Z,0.29
2019-02-04T21:37:04.754Z,0.28
2019-02-04T21:38:40.349Z,0.32
2019-02-04T21:40:16.254Z,0.27
2019-02-04T21:41:52.375Z,0.30
2019-02-04T21:43:33.629Z,0.32
2019-02-04T21:45:14.560Z,0.33
2019-02-04T21:46:50.732Z,0.31
2019-02-04T21:48:26.644Z,0.33
2019-02-04T21:50:04.142Z,0.32